• Join FlightAware (Why Join?)
  • Login
  • US Flag 
11:55PM EDT


 

Airport Tracker/Info


-or-


 

Live Flight TrackerFlight Track Log ✈ UCA3599 ✈ 29-Oct-2013 ✈ KBGM - KIAD

Flight Track Log - Related Links

Times and Time Zones

All times are in EDT time to prevent confusion due to time zone crossing. See the UCA3599 flight status page for this flight to view local times or setup timezone preferences in your user account.

Time Position Orientation Groundspeed Altitude Reporting Facility
EDT Latitude Longitude Course Direction KTS MPH feet Rate Location/Type
06:11AM 42.2083 -76.0369 212° Southwest 171 197 3,400  Level New York Center
06:12AM 42.1694 -76.0700 212° Southwest 187 215 5,000 1,740 Climbing New York Center
06:13AM 42.1283 -76.1031 211° Southwest 187 215 6,900 1,800 Climbing New York Center
06:14AM 42.0917 -76.1367 214° Southwest 175 201 8,600 1,500 Climbing New York Center
06:15AM 42.0547 -76.1697 214° Southwest 170 196 9,900 1,380 Climbing New York Center
06:16AM 42.0114 -76.2053 211° Southwest 184 212 11,400 1,500 Climbing New York Center
06:17AM 41.9703 -76.2411 213° Southwest 179 206 12,900 1,380 Climbing New York Center
06:18AM 41.9297 -76.2628 202° Southwest 179 206 14,200 1,200 Climbing New York Center
06:19AM 41.8847 -76.2897 204° Southwest 179 206 15,400 900 Climbing New York Center
06:20AM 41.8269 -76.3211 202° Southwest 184 212 16,000 300 Climbing New York Center
06:21AM 41.7650 -76.3550 202° Southwest 223 257 16,000  Level New York Center
06:22AM 41.6967 -76.3908 201° Southwest 250 288 16,000  Level New York Center
06:23AM 41.6367 -76.4275 205° Southwest 265 305 16,000  Level New York Center
06:24AM 41.5597 -76.4681 202° Southwest 265 305 16,000  Level New York Center
06:25AM 41.4911 -76.5067 203° Southwest 265 305 16,000  Level New York Center
06:26AM 41.4231 -76.5394 200° South 265 305 16,000  Level New York Center
06:27AM 41.3631 -76.5731 203° Southwest 265 305 16,000  Level New York Center
06:28AM 41.2922 -76.6111 202° Southwest 265 305 16,000  Level New York Center
06:29AM 41.2194 -76.6517 203° Southwest 259 298 16,000  Level New York Center
06:30AM 41.1572 -76.6878 204° Southwest 264 304 16,000  Level New York Center
06:31AM 41.0889 -76.7231 201° Southwest 264 304 16,000  Level New York Center
06:32AM 41.0203 -76.7611 203° Southwest 264 304 16,000  Level New York Center
06:33AM 40.9517 -76.7992 203° Southwest 264 304 16,000  Level New York Center
06:34AM 40.8767 -76.8392 202° Southwest 264 304 16,000  Level New York Center
06:35AM 40.8144 -76.8719 202° Southwest 264 304 16,000  Level New York Center
06:36AM 40.7358 -76.9033 197° South 264 304 16,000  Level New York Center
06:37AM 40.6703 -76.9219 192° South 270 311 16,000  Level New York Center
06:38AM 40.5897 -76.9475 194° South 275 316 16,000  Level New York Center
06:39AM 40.5239 -76.9689 194° South 275 316 16,000  Level New York Center
06:40AM 40.4436 -76.9919 192° South 275 316 16,000 -360 Level New York Center
06:42AM 40.3000 -77.0333 192° South 279 321 15,000 -720 Descending Potomac TRACON
06:43AM 40.2167 -77.0667 197° South 288 331 13,900 -1,140 Descending Potomac TRACON
06:44AM 40.1333 -77.0833 189° South 288 331 12,700 -1,140 Descending Potomac TRACON
06:45AM 40.0667 -77.1167 201° Southwest 270 311 11,700 -1,080 Descending Potomac TRACON
06:46AM 40.0000 -77.1333 191° South 262 302 10,700 -1,140 Descending Potomac TRACON
06:47AM 39.9333 -77.1500 191° South 257 296 9,600 -1,020 Descending Potomac TRACON
06:48AM 39.8667 -77.1833 201° Southwest 251 289 8,800 -840 Descending Potomac TRACON
06:49AM 39.8000 -77.2167 201° Southwest 249 287 8,000 -840 Descending Potomac TRACON
06:50AM 39.7500 -77.2500 207° Southwest 243 280 7,200 -600 Descending Potomac TRACON
06:51AM 39.7000 -77.3000 218° Southwest 245 282 7,000 -120 Descending Potomac TRACON
06:52AM 39.6333 -77.3333 201° Southwest 240 276 7,000 -120 Level Potomac TRACON
06:53AM 39.5667 -77.3500 191° South 246 283 6,800 -840 Descending Potomac TRACON
06:54AM 39.5333 -77.4167 237° Southwest 242 278 5,500 -1,320 Descending Potomac TRACON
06:55AM 39.4833 -77.4500 207° Southwest 251 289 4,200 -780 Descending Potomac TRACON
06:56AM 39.4333 -77.3833 134° Southeast 253 291 4,000 -120 Descending Potomac TRACON
06:56AM 39.3667 -77.3500 159° South 247 284 4,000  Level Potomac TRACON
06:57AM 39.3000 -77.3500 180° South 241 277 4,000  Level Potomac TRACON
06:58AM 39.2333 -77.3500 180° South 240 276 4,000  Level Potomac TRACON
06:59AM 39.1833 -77.3500 180° South 242 278 4,000  Level Potomac TRACON
07:00AM 39.1167 -77.3500 180° South 241 277 4,000  Level Potomac TRACON
07:01AM 39.0500 -77.3667 191° South 241 277 4,000  Level Potomac TRACON
07:02AM 38.9833 -77.3667 180° South 244 281 4,000 -480 Level Potomac TRACON
07:03AM 38.9000 -77.3667 180° South 251 289 3,100 -540 Descending Potomac TRACON
07:04AM 38.8500 -77.3667 180° South 229 264 3,000 -600 Descending Potomac TRACON
07:05AM 38.8000 -77.3667 180° South 198 228 2,000 -540 Descending Potomac TRACON
07:06AM 38.8000 -77.4333 270° West 204 235 2,000 -60 Level Potomac TRACON
07:07AM 38.8500 -77.4333 360° North 143 165 1,900 -360 Descending Potomac TRACON
07:08AM 38.8833 -77.4333 360° North 116 133 1,300 -600 Descending Potomac TRACON
07:09AM 38.9000 -77.4333 360° North 109 125 700 -600 Descending Potomac TRACON